createdAt,value
2017-04-29T00:02:03.355Z,5.4
2017-04-29T00:07:03.127Z,5.4
2017-04-29T00:12:03.125Z,5.5
2017-04-29T00:17:03.280Z,5.6
2017-04-29T00:22:03.373Z,5.6
2017-04-29T00:27:03.168Z,5.5
2017-04-29T00:32:03.154Z,5.6
2017-04-29T00:37:03.156Z,5.9
2017-04-29T00:42:03.105Z,5.9
2017-04-29T00:47:03.059Z,5.9
2017-04-29T00:52:03.030Z,5.8
2017-04-29T00:57:03.095Z,5.8
2017-04-29T01:02:03.230Z,5.7
2017-04-29T01:07:03.070Z,5.7
2017-04-29T01:12:03.113Z,5.7
2017-04-29T01:17:03.079Z,5.7
2017-04-29T01:22:03.596Z,5.7
2017-04-29T01:27:03.299Z,5.7
2017-04-29T01:32:03.149Z,5.6
2017-04-29T01:37:03.335Z,5.6
2017-04-29T01:42:03.081Z,5.5
2017-04-29T01:47:02.897Z,5.4
2017-04-29T01:52:03.277Z,5.3
2017-04-29T01:57:03.215Z,5.2
2017-04-29T02:02:03.132Z,5.0
2017-04-29T02:07:03.008Z,4.9
2017-04-29T02:12:03.072Z,5.0
2017-04-29T02:17:03.137Z,4.9
2017-04-29T02:22:03.190Z,4.9
2017-04-29T02:27:03.077Z,4.9
2017-04-29T02:32:02.926Z,4.9
2017-04-29T02:37:02.978Z,4.9
2017-04-29T02:42:03.191Z,4.9
2017-04-29T02:47:03.476Z,4.5
2017-04-29T02:52:03.058Z,4.5
2017-04-29T02:57:03.307Z,4.5
2017-04-29T03:02:03.636Z,4.4
2017-04-29T03:07:02.851Z,4.3
2017-04-29T03:12:03.313Z,4.2
2017-04-29T03:17:03.790Z,4.2
2017-04-29T03:22:03.036Z,4.1
2017-04-29T03:27:03.325Z,4.0
2017-04-29T03:32:10.028Z,3.8
2017-04-29T03:37:03.002Z,3.8
2017-04-29T03:42:03.354Z,3.7
2017-04-29T03:47:13.314Z,3.7
2017-04-29T03:52:03.442Z,3.6
2017-04-29T03:57:02.884Z,3.6
2017-04-29T04:02:17.134Z,3.5
2017-04-29T04:07:03.301Z,3.4
2017-04-29T04:12:02.958Z,3.4
2017-04-29T04:17:16.836Z,3.5
2017-04-29T04:22:03.520Z,3.5
2017-04-29T04:27:03.002Z,3.6
2017-04-29T04:32:13.892Z,3.6
2017-04-29T04:37:03.602Z,3.8
2017-04-29T04:42:02.935Z,3.9
2017-04-29T04:47:13.591Z,3.8
2017-04-29T04:52:02.747Z,4.1
2017-04-29T04:57:03.140Z,4.4
2017-04-29T05:02:18.074Z,4.6
2017-04-29T05:07:03.153Z,4.9
2017-04-29T05:12:03.625Z,4.9
2017-04-29T05:17:13.054Z,5.1
2017-04-29T05:22:03.596Z,5.0
2017-04-29T05:27:02.898Z,5.0
2017-04-29T05:32:22.632Z,5.1
2017-04-29T05:37:03.360Z,5.0
2017-04-29T05:42:02.808Z,5.5
2017-04-29T05:47:13.602Z,5.9
2017-04-29T05:52:02.694Z,5.9
2017-04-29T05:57:03.144Z,6.4
2017-04-29T06:02:13.885Z,6.9
2017-04-29T06:07:02.740Z,6.8
2017-04-29T06:12:03.336Z,7.2
2017-04-29T06:17:18.302Z,7.5
2017-04-29T06:22:02.782Z,7.9
2017-04-29T06:27:03.171Z,8.4
2017-04-29T06:32:18.044Z,8.9
2017-04-29T06:37:03.457Z,8.8
2017-04-29T06:42:02.821Z,9.5
2017-04-29T06:47:13.797Z,9.7
2017-04-29T06:52:03.013Z,9.8
2017-04-29T06:57:03.373Z,10.1
2017-04-29T07:02:13.504Z,10.3
2017-04-29T07:07:03.250Z,10.6
2017-04-29T07:12:02.746Z,10.8
2017-04-29T07:17:13.668Z,11.1
2017-04-29T07:22:03.342Z,11.6
2017-04-29T07:27:02.796Z,11.6
2017-04-29T07:32:13.371Z,12.0
2017-04-29T07:37:03.419Z,12.4
2017-04-29T07:42:02.757Z,12.7
2017-04-29T07:47:13.654Z,13.0
2017-04-29T07:52:03.421Z,13.3
2017-04-29T07:57:02.806Z,13.7
2017-04-29T08:02:13.559Z,14.5
2017-04-29T08:07:03.614Z,14.5
2017-04-29T08:12:03.369Z,15.2
2017-04-29T08:17:13.368Z,15.9
2017-04-29T08:22:02.813Z,16.4
2017-04-29T08:27:03.193Z,16.4
2017-04-29T08:32:13.898Z,16.8
2017-04-29T08:37:03.470Z,16.9
2017-04-29T08:42:02.812Z,16.4
2017-04-29T08:47:13.638Z,16.2
2017-04-29T08:52:03.045Z,15.7
2017-04-29T08:57:03.364Z,15.3
2017-04-29T09:02:17.352Z,14.5
2017-04-29T09:12:07.818Z,14.5
2017-04-29T09:17:17.707Z,14.1
2017-04-29T09:22:03.603Z,14.1
2017-04-29T09:27:03.008Z,14.4
2017-04-29T09:32:13.715Z,14.9
2017-04-29T09:37:03.016Z,15.9
2017-04-29T09:42:03.390Z,15.9
2017-04-29T09:52:02.934Z,16.0
2017-04-29T09:57:03.307Z,16.0
2017-04-29T10:02:12.870Z,16.0
2017-04-29T10:07:03.409Z,15.8
2017-04-29T10:12:02.993Z,15.7
2017-04-29T10:17:17.257Z,15.6
2017-04-29T10:22:02.783Z,17.0
2017-04-29T10:27:02.888Z,16.9
2017-04-29T10:32:13.112Z,18.4
2017-04-29T10:37:02.901Z,19.5
2017-04-29T10:42:03.425Z,19.7
2017-04-29T10:47:16.686Z,19.7
2017-04-29T10:52:02.728Z,19.6
2017-04-29T10:57:03.229Z,19.2
2017-04-29T11:02:17.795Z,18.5
2017-04-29T11:07:03.138Z,18.8
2017-04-29T11:12:03.540Z,18.8
2017-04-29T11:17:13.382Z,19.3
2017-04-29T11:22:03.157Z,19.4
2017-04-29T11:27:03.486Z,19.4
2017-04-29T11:32:13.261Z,19.4
2017-04-29T11:37:03.461Z,19.5
2017-04-29T11:42:03.319Z,21.6
2017-04-29T11:47:13.122Z,21.6
2017-04-29T11:52:02.996Z,21.6
2017-04-29T11:57:03.372Z,21.3
2017-04-29T12:02:13.267Z,21.3
2017-04-29T12:07:03.283Z,20.5
2017-04-29T12:12:02.826Z,20.0
2017-04-29T12:17:13.927Z,19.4
2017-04-29T12:22:03.394Z,19.2
2017-04-29T12:27:02.788Z,19.2
2017-04-29T12:32:17.444Z,19.3
2017-04-29T12:37:03.156Z,19.4
2017-04-29T12:42:03.426Z,20.0
2017-04-29T12:47:16.732Z,19.5
2017-04-29T12:52:02.888Z,19.5
2017-04-29T12:57:03.328Z,19.0
2017-04-29T13:02:13.056Z,19.1
2017-04-29T13:07:03.023Z,19.6
2017-04-29T13:12:03.537Z,19.7
2017-04-29T13:17:16.963Z,19.8
2017-04-29T13:22:03.482Z,19.8
2017-04-29T13:27:02.987Z,19.8
2017-04-29T13:32:17.452Z,19.9
2017-04-29T13:37:02.809Z,20.2
2017-04-29T13:42:03.237Z,20.4
2017-04-29T13:47:13.389Z,20.4
2017-04-29T13:52:03.299Z,20.4
2017-04-29T13:57:03.070Z,21.6
2017-04-29T14:02:17.137Z,23.6
2017-04-29T14:07:03.038Z,23.5
2017-04-29T14:12:03.598Z,24.3
2017-04-29T14:17:13.762Z,25.1
2017-04-29T14:22:02.817Z,25.6
2017-04-29T14:27:03.333Z,26.9
2017-04-29T14:32:13.017Z,28.3
2017-04-29T14:37:03.339Z,28.0
2017-04-29T14:42:03.578Z,28.0
2017-04-29T14:47:16.937Z,33.0
2017-04-29T14:52:02.679Z,33.0
2017-04-29T14:57:03.148Z,36.5
2017-04-29T15:02:17.662Z,39.3
2017-04-29T15:07:03.419Z,32.6
2017-04-29T15:12:03.026Z,32.5
2017-04-29T15:17:13.912Z,30.4
2017-04-29T15:22:03.264Z,29.0
2017-04-29T15:27:03.525Z,28.9
2017-04-29T15:32:17.513Z,31.5
2017-04-29T15:37:02.655Z,29.6
2017-04-29T15:42:02.782Z,31.9
2017-04-29T15:47:17.838Z,36.8
2017-04-29T15:52:03.200Z,37.8
2017-04-29T15:57:03.437Z,37.7
2017-04-29T16:02:13.310Z,41.8
2017-04-29T16:07:03.633Z,36.6
2017-04-29T16:12:03.080Z,36.5
2017-04-29T16:17:14.037Z,41.4
2017-04-29T16:22:02.804Z,41.4
2017-04-29T16:27:03.158Z,38.8
2017-04-29T16:32:12.742Z,38.8
2017-04-29T16:37:02.742Z,37.0
2017-04-29T16:42:03.099Z,34.6
2017-04-29T16:47:09.382Z,30.3
2017-04-29T16:52:03.116Z,27.6
2017-04-29T16:57:03.241Z,27.5
2017-04-29T17:02:08.024Z,25.4
2017-04-29T17:07:03.243Z,22.7
2017-04-29T17:12:03.637Z,22.6
2017-04-29T17:17:13.662Z,26.0
2017-04-29T17:22:04.626Z,26.5
2017-04-29T17:27:02.904Z,25.7
2017-04-29T17:32:13.881Z,23.5
2017-04-29T17:37:03.404Z,21.9
2017-04-29T17:42:02.725Z,20.9
2017-04-29T17:47:17.748Z,20.8
2017-04-29T17:52:02.973Z,19.2
2017-04-29T17:57:03.380Z,19.1
2017-04-29T18:02:17.525Z,17.9
2017-04-29T18:07:03.119Z,17.3
2017-04-29T18:12:03.497Z,16.8
2017-04-29T18:17:13.503Z,16.2
2017-04-29T18:22:03.559Z,15.9
2017-04-29T18:27:02.863Z,15.5
2017-04-29T18:32:13.765Z,15.5
2017-04-29T18:37:03.021Z,15.2
2017-04-29T18:42:03.404Z,14.8
2017-04-29T18:47:17.751Z,14.4
2017-04-29T18:52:03.415Z,13.5
2017-04-29T18:57:02.742Z,13.5
2017-04-29T19:02:13.592Z,12.8
2017-04-29T19:07:03.422Z,12.7
2017-04-29T19:12:03.002Z,12.0
2017-04-29T19:17:13.931Z,11.9
2017-04-29T19:22:03.145Z,11.6
2017-04-29T19:27:03.447Z,11.1
2017-04-29T19:32:07.122Z,11.0
2017-04-29T19:37:03.456Z,10.9
2017-04-29T19:42:02.901Z,10.6
2017-04-29T19:47:03.392Z,10.5
2017-04-29T19:52:03.438Z,10.2
2017-04-29T19:57:02.794Z,10.2
2017-04-29T20:02:03.172Z,10.0
2017-04-29T20:07:03.488Z,9.6
2017-04-29T20:12:03.030Z,9.5
2017-04-29T20:17:03.292Z,9.4
2017-04-29T20:22:02.733Z,9.3
2017-04-29T20:27:03.041Z,9.2
2017-04-29T20:32:03.625Z,9.2
2017-04-29T20:37:03.621Z,9.0
2017-04-29T20:42:02.908Z,8.9
2017-04-29T20:47:03.141Z,8.8
2017-04-29T20:52:03.444Z,8.7
2017-04-29T20:57:02.714Z,8.7
2017-04-29T21:02:03.076Z,8.6
2017-04-29T21:07:03.414Z,8.4
2017-04-29T21:12:02.947Z,8.3
2017-04-29T21:17:04.570Z,8.1
2017-04-29T21:22:03.472Z,7.9
2017-04-29T21:27:02.821Z,7.9
2017-04-29T21:32:03.123Z,7.7
2017-04-29T21:37:03.273Z,7.6
2017-04-29T21:42:03.499Z,7.6
2017-04-29T21:47:02.874Z,7.4
2017-04-29T21:52:03.356Z,7.3
2017-04-29T21:57:02.665Z,7.1
2017-04-29T22:02:03.142Z,6.9
2017-04-29T22:07:03.213Z,6.9
2017-04-29T22:12:03.566Z,6.8
2017-04-29T22:22:03.727Z,6.4
2017-04-29T22:27:03.118Z,6.5
2017-04-29T22:32:02.997Z,6.4
2017-04-29T22:37:02.929Z,6.4
2017-04-29T22:42:02.677Z,6.4
2017-04-29T22:47:03.524Z,6.3
2017-04-29T22:52:03.088Z,6.2
2017-04-29T22:57:03.106Z,6.2
2017-04-29T23:02:03.082Z,5.9
2017-04-29T23:07:03.112Z,5.8
2017-04-29T23:12:03.157Z,5.8
2017-04-29T23:17:03.432Z,5.7
2017-04-29T23:22:03.036Z,5.7
2017-04-29T23:27:02.848Z,5.6
2017-04-29T23:32:02.848Z,5.4
2017-04-29T23:37:03.038Z,5.3
2017-04-29T23:42:03.546Z,5.2
2017-04-29T23:47:03.411Z,5.2
2017-04-29T23:52:03.133Z,5.1
2017-04-29T23:57:03.023Z,5.0
